Terminal Aerodrome Forecast
Issued by NWS

Home | Current Version | Previous Version | Text Only | Print | Product List | Glossary On
Versions: 1 2 3 4 5 6 7 8 9 10 11 12 13
000
FTUS44 KBMX 012300
TAFMGM
TAF
KMGM 012336Z 0200/0224 08004KT P6SM OVC015
     FM020200 09003KT 6SM -RA BR OVC007
     FM020700 VRB03KT 3SM BR VCSH OVC004
     FM021500 VRB03KT 5SM -DZ BR OVC007=

USA.gov is the U.S. government's official web portal to all federal, state and local government web resources and services.